sensor_id;sensor_type;location;lat;lon;timestamp;pressure;altitude;pressure_sealevel;temperature;humidity
39223;BME280;24936;46.328;11.026;2023-08-06T00:00:38;93504.91;;;11.46;100.00
39223;BME280;24936;46.328;11.026;2023-08-06T00:03:04;93507.56;;;11.46;100.00
39223;BME280;24936;46.328;11.026;2023-08-06T00:05:29;93509.34;;;11.54;100.00
39223;BME280;24936;46.328;11.026;2023-08-06T00:07:55;93504.59;;;11.49;100.00
39223;BME280;24936;46.328;11.026;2023-08-06T00:10:20;93504.59;;;11.49;100.00
39223;BME280;24936;46.328;11.026;2023-08-06T00:12:46;93509.16;;;11.55;100.00
39223;BME280;24936;46.328;11.026;2023-08-06T00:15:11;93510.78;;;11.65;100.00
39223;BME280;24936;46.328;11.026;2023-08-06T00:17:37;93495.31;;;11.61;100.00
39223;BME280;24936;46.328;11.026;2023-08-06T00:20:03;93504.66;;;11.81;100.00
39223;BME280;24936;46.328;11.026;2023-08-06T00:22:35;93504.78;;;11.79;100.00
39223;BME280;24936;46.328;11.026;2023-08-06T00:25:01;93502.31;;;11.86;100.00
39223;BME280;24936;46.328;11.026;2023-08-06T00:27:27;93502.44;;;11.92;100.00
39223;BME280;24936;46.328;11.026;2023-08-06T00:29:52;93503.09;;;11.94;100.00
39223;BME280;24936;46.328;11.026;2023-08-06T00:32:18;93507.09;;;11.90;100.00
39223;BME280;24936;46.328;11.026;2023-08-06T00:34:43;93495.34;;;12.01;100.00
39223;BME280;24936;46.328;11.026;2023-08-06T00:37:09;93494.47;;;12.17;100.00
39223;BME280;24936;46.328;11.026;2023-08-06T00:39:34;93487.50;;;12.24;100.00
39223;BME280;24936;46.328;11.026;2023-08-06T00:42:00;93486.16;;;12.29;100.00
39223;BME280;24936;46.328;11.026;2023-08-06T00:44:25;93482.69;;;12.28;100.00
39223;BME280;24936;46.328;11.026;2023-08-06T00:46:50;93477.94;;;12.23;100.00
39223;BME280;24936;46.328;11.026;2023-08-06T00:49:16;93482.34;;;12.31;100.00
39223;BME280;24936;46.328;11.026;2023-08-06T00:51:42;93488.25;;;12.33;100.00
39223;BME280;24936;46.328;11.026;2023-08-06T00:54:09;93479.56;;;12.24;100.00
39223;BME280;24936;46.328;11.026;2023-08-06T00:56:34;93478.41;;;12.27;100.00
39223;BME280;24936;46.328;11.026;2023-08-06T00:59:04;93472.78;;;12.30;100.00
39223;BME280;24936;46.328;11.026;2023-08-06T01:01:31;93472.13;;;12.28;100.00
39223;BME280;24936;46.328;11.026;2023-08-06T01:03:56;93469.50;;;12.28;100.00
39223;BME280;24936;46.328;11.026;2023-08-06T01:06:34;93472.38;;;12.42;100.00
39223;BME280;24936;46.328;11.026;2023-08-06T01:09:11;93477.84;;;12.40;100.00
39223;BME280;24936;46.328;11.026;2023-08-06T01:14:26;93458.69;;;12.46;100.00
39223;BME280;24936;46.328;11.026;2023-08-06T01:16:54;93454.09;;;12.40;100.00
39223;BME280;24936;46.328;11.026;2023-08-06T01:19:21;93460.69;;;12.36;100.00
39223;BME280;24936;46.328;11.026;2023-08-06T01:21:46;93462.66;;;12.42;100.00
39223;BME280;24936;46.328;11.026;2023-08-06T01:24:12;93465.41;;;12.49;100.00
39223;BME280;24936;46.328;11.026;2023-08-06T01:29:11;93455.09;;;12.39;100.00
39223;BME280;24936;46.328;11.026;2023-08-06T01:31:41;93456.03;;;12.46;100.00
39223;BME280;24936;46.328;11.026;2023-08-06T01:34:10;93455.09;;;12.39;100.00
39223;BME280;24936;46.328;11.026;2023-08-06T01:36:39;93458.72;;;12.38;100.00
39223;BME280;24936;46.328;11.026;2023-08-06T01:39:05;93452.75;;;12.44;100.00
39223;BME280;24936;46.328;11.026;2023-08-06T01:41:30;93459.56;;;12.38;100.00
39223;BME280;24936;46.328;11.026;2023-08-06T01:43:56;93458.38;;;12.41;100.00
39223;BME280;24936;46.328;11.026;2023-08-06T01:46:21;93453.09;;;12.41;100.00
39223;BME280;24936;46.328;11.026;2023-08-06T01:48:47;93438.44;;;12.38;100.00
39223;BME280;24936;46.328;11.026;2023-08-06T01:51:12;93451.00;;;12.36;100.00
39223;BME280;24936;46.328;11.026;2023-08-06T01:53:38;93447.22;;;12.31;100.00
39223;BME280;24936;46.328;11.026;2023-08-06T01:56:03;93447.38;;;12.29;100.00
39223;BME280;24936;46.328;11.026;2023-08-06T01:58:28;93459.06;;;12.12;100.00
39223;BME280;24936;46.328;11.026;2023-08-06T02:00:54;93452.13;;;12.11;100.00
39223;BME280;24936;46.328;11.026;2023-08-06T02:03:19;93459.69;;;12.14;100.00
39223;BME280;24936;46.328;11.026;2023-08-06T02:05:45;93446.81;;;12.19;100.00
39223;BME280;24936;46.328;11.026;2023-08-06T02:08:11;93445.88;;;12.12;100.00
39223;BME280;24936;46.328;11.026;2023-08-06T02:10:36;93433.81;;;12.17;100.00
39223;BME280;24936;46.328;11.026;2023-08-06T02:13:01;93440.06;;;12.16;100.00
39223;BME280;24936;46.328;11.026;2023-08-06T02:15:27;93437.81;;;12.05;100.00
39223;BME280;24936;46.328;11.026;2023-08-06T02:17:52;93433.13;;;11.84;100.00
39223;BME280;24936;46.328;11.026;2023-08-06T02:20:18;93439.56;;;11.81;100.00
39223;BME280;24936;46.328;11.026;2023-08-06T02:22:43;93447.66;;;11.71;100.00
39223;BME280;24936;46.328;11.026;2023-08-06T02:25:08;93454.16;;;11.52;100.00
39223;BME280;24936;46.328;11.026;2023-08-06T02:27:34;93449.97;;;11.35;100.00
39223;BME280;24936;46.328;11.026;2023-08-06T02:29:59;93453.25;;;11.28;100.00
39223;BME280;24936;46.328;11.026;2023-08-06T02:32:25;93448.66;;;11.30;100.00
39223;BME280;24936;46.328;11.026;2023-08-06T02:34:50;93440.88;;;11.37;100.00
39223;BME280;24936;46.328;11.026;2023-08-06T02:37:15;93438.72;;;11.41;100.00
39223;BME280;24936;46.328;11.026;2023-08-06T02:39:41;93439.72;;;11.40;100.00
39223;BME280;24936;46.328;11.026;2023-08-06T02:42:07;93429.50;;;11.37;100.00
39223;BME280;24936;46.328;11.026;2023-08-06T02:44:33;93422.78;;;11.34;100.00
39223;BME280;24936;46.328;11.026;2023-08-06T02:46:59;93424.94;;;11.30;100.00
39223;BME280;24936;46.328;11.026;2023-08-06T02:49:24;93428.59;;;11.21;100.00
39223;BME280;24936;46.328;11.026;2023-08-06T02:51:50;93427.94;;;11.11;100.00
39223;BME280;24936;46.328;11.026;2023-08-06T02:54:15;93422.72;;;11.02;100.00
39223;BME280;24936;46.328;11.026;2023-08-06T02:56:43;93413.66;;;10.89;100.00
39223;BME280;24936;46.328;11.026;2023-08-06T02:59:09;93410.88;;;10.82;100.00
39223;BME280;24936;46.328;11.026;2023-08-06T03:01:35;93411.41;;;10.69;100.00
39223;BME280;24936;46.328;11.026;2023-08-06T03:04:01;93414.03;;;10.61;100.00
39223;BME280;24936;46.328;11.026;2023-08-06T03:06:26;93406.97;;;10.45;100.00
39223;BME280;24936;46.328;11.026;2023-08-06T03:08:52;93403.84;;;10.41;100.00
39223;BME280;24936;46.328;11.026;2023-08-06T03:11:17;93406.97;;;10.53;100.00
39223;BME280;24936;46.328;11.026;2023-08-06T03:13:42;93401.53;;;10.46;100.00
39223;BME280;24936;46.328;11.026;2023-08-06T03:16:08;93410.59;;;10.44;100.00
39223;BME280;24936;46.328;11.026;2023-08-06T03:18:33;93409.44;;;10.38;100.00
39223;BME280;24936;46.328;11.026;2023-08-06T03:20:59;93403.81;;;10.33;100.00
39223;BME280;24936;46.328;11.026;2023-08-06T03:23:24;93401.19;;;10.24;100.00
39223;BME280;24936;46.328;11.026;2023-08-06T03:25:49;93406.94;;;10.20;100.00
39223;BME280;24936;46.328;11.026;2023-08-06T03:28:15;93406.63;;;10.23;100.00
39223;BME280;24936;46.328;11.026;2023-08-06T03:30:40;93404.28;;;10.12;100.00
39223;BME280;24936;46.328;11.026;2023-08-06T03:33:06;93414.81;;;10.28;100.00
39223;BME280;24936;46.328;11.026;2023-08-06T03:35:31;93409.41;;;10.30;100.00
39223;BME280;24936;46.328;11.026;2023-08-06T03:37:57;93405.94;;;10.29;100.00
39223;BME280;24936;46.328;11.026;2023-08-06T03:40:22;93398.41;;;10.34;100.00
39223;BME280;24936;46.328;11.026;2023-08-06T03:42:48;93407.59;;;10.14;100.00
39223;BME280;24936;46.328;11.026;2023-08-06T03:45:13;93406.63;;;10.23;100.00
39223;BME280;24936;46.328;11.026;2023-08-06T03:47:38;93399.69;;;10.14;100.00
39223;BME280;24936;46.328;11.026;2023-08-06T03:50:04;93404.94;;;10.05;100.00
39223;BME280;24936;46.328;11.026;2023-08-06T03:52:29;93397.22;;;10.04;100.00
39223;BME280;24936;46.328;11.026;2023-08-06T03:54:55;93404.63;;;10.08;100.00
39223;BME280;24936;46.328;11.026;2023-08-06T03:57:20;93397.91;;;10.14;100.00
39223;BME280;24936;46.328;11.026;2023-08-06T03:59:45;93403.50;;;10.28;100.00
39223;BME280;24936;46.328;11.026;2023-08-06T04:02:11;93386.75;;;10.29;100.00
39223;BME280;24936;46.328;11.026;2023-08-06T04:04:36;93389.00;;;10.32;100.00
39223;BME280;24936;46.328;11.026;2023-08-06T04:07:02;93395.31;;;10.39;100.00
39223;BME280;24936;46.328;11.026;2023-08-06T04:09:28;93389.84;;;10.32;100.00
39223;BME280;24936;46.328;11.026;2023-08-06T04:11:54;93384.28;;;10.35;100.00
39223;BME280;24936;46.328;11.026;2023-08-06T04:14:19;93390.66;;;10.24;100.00
39223;BME280;24936;46.328;11.026;2023-08-06T04:16:45;93382.78;;;10.24;100.00
39223;BME280;24936;46.328;11.026;2023-08-06T04:19:10;93385.25;;;10.26;100.00
39223;BME280;24936;46.328;11.026;2023-08-06T04:21:36;93390.00;;;10.22;100.00
39223;BME280;24936;46.328;11.026;2023-08-06T04:24:01;93386.56;;;10.30;100.00
39223;BME280;24936;46.328;11.026;2023-08-06T04:26:27;93381.78;;;10.34;100.00
39223;BME280;24936;46.328;11.026;2023-08-06T04:28:52;93377.50;;;10.33;100.00
39223;BME280;24936;46.328;11.026;2023-08-06T04:31:17;93374.06;;;10.32;100.00
39223;BME280;24936;46.328;11.026;2023-08-06T04:33:43;93376.03;;;10.30;100.00
39223;BME280;24936;46.328;11.026;2023-08-06T04:36:08;93376.03;;;10.30;100.00
39223;BME280;24936;46.328;11.026;2023-08-06T04:38:34;93385.75;;;10.30;100.00
39223;BME280;24936;46.328;11.026;2023-08-06T04:40:59;93377.34;;;10.26;100.00
39223;BME280;24936;46.328;11.026;2023-08-06T04:43:24;93374.41;;;10.29;100.00
39223;BME280;24936;46.328;11.026;2023-08-06T04:45:51;93377.88;;;10.38;100.00
39223;BME280;24936;46.328;11.026;2023-08-06T04:48:17;93378.69;;;10.38;100.00
39223;BME280;24936;46.328;11.026;2023-08-06T04:50:44;93376.06;;;10.38;100.00
39223;BME280;24936;46.328;11.026;2023-08-06T04:53:10;93378.38;;;10.42;100.00
39223;BME280;24936;46.328;11.026;2023-08-06T04:55:35;93379.53;;;10.39;100.00
39223;BME280;24936;46.328;11.026;2023-08-06T04:58:00;93376.56;;;10.42;100.00
39223;BME280;24936;46.328;11.026;2023-08-06T05:00:26;93375.41;;;10.45;100.00
39223;BME280;24936;46.328;11.026;2023-08-06T05:02:51;93378.53;;;10.57;100.00
39223;BME280;24936;46.328;11.026;2023-08-06T05:05:17;93370.66;;;10.57;100.00
39223;BME280;24936;46.328;11.026;2023-08-06T05:07:42;93374.09;;;10.49;100.00
39223;BME280;24936;46.328;11.026;2023-08-06T05:10:08;93379.34;;;10.57;100.00
39223;BME280;24936;46.328;11.026;2023-08-06T05:12:33;93388.72;;;10.68;100.00
39223;BME280;24936;46.328;11.026;2023-08-06T05:14:58;93394.78;;;10.68;100.00
39223;BME280;24936;46.328;11.026;2023-08-06T05:17:24;93391.03;;;10.71;100.00
39223;BME280;24936;46.328;11.026;2023-08-06T05:19:49;93392.16;;;10.77;100.00
39223;BME280;24936;46.328;11.026;2023-08-06T05:22:15;93393.44;;;10.81;100.00
39223;BME280;24936;46.328;11.026;2023-08-06T05:24:40;93388.34;;;10.88;100.00
39223;BME280;24936;46.328;11.026;2023-08-06T05:27:05;93390.13;;;10.95;100.00
39223;BME280;24936;46.328;11.026;2023-08-06T05:29:31;93385.34;;;11.07;100.00
39223;BME280;24936;46.328;11.026;2023-08-06T05:31:56;93396.38;;;11.02;100.00
39223;BME280;24936;46.328;11.026;2023-08-06T05:34:22;93393.06;;;11.09;100.00
39223;BME280;24936;46.328;11.026;2023-08-06T05:36:47;93391.91;;;11.03;100.00
39223;BME280;24936;46.328;11.026;2023-08-06T05:39:12;93383.25;;;10.86;100.00
39223;BME280;24936;46.328;11.026;2023-08-06T05:41:38;93391.81;;;10.80;100.00
39223;BME280;24936;46.328;11.026;2023-08-06T05:44:03;93389.69;;;10.75;100.00
39223;BME280;24936;46.328;11.026;2023-08-06T05:46:29;93398.88;;;10.88;100.00
39223;BME280;24936;46.328;11.026;2023-08-06T05:48:54;93390.63;;;10.91;100.00
39223;BME280;24936;46.328;11.026;2023-08-06T05:51:19;93389.16;;;10.88;100.00
39223;BME280;24936;46.328;11.026;2023-08-06T05:53:45;93389.13;;;10.96;100.00
39223;BME280;24936;46.328;11.026;2023-08-06T05:56:12;93386.81;;;11.10;100.00
39223;BME280;24936;46.328;11.026;2023-08-06T05:58:37;93384.34;;;11.08;100.00
39223;BME280;24936;46.328;11.026;2023-08-06T06:01:03;93382.88;;;11.06;100.00
39223;BME280;24936;46.328;11.026;2023-08-06T06:03:28;93384.34;;;11.08;100.00
39223;BME280;24936;46.328;11.026;2023-08-06T06:05:53;93386.63;;;11.20;100.00
39223;BME280;24936;46.328;11.026;2023-08-06T06:08:19;93385.59;;;11.29;100.00
39223;BME280;24936;46.328;11.026;2023-08-06T06:10:44;93378.31;;;11.39;100.00
39223;BME280;24936;46.328;11.026;2023-08-06T06:13:10;93379.44;;;11.45;100.00
39223;BME280;24936;46.328;11.026;2023-08-06T06:15:35;93387.16;;;11.55;100.00
39223;BME280;24936;46.328;11.026;2023-08-06T06:18:00;93383.59;;;11.71;100.00
39223;BME280;24936;46.328;11.026;2023-08-06T06:20:26;93380.41;;;11.84;100.00
39223;BME280;24936;46.328;11.026;2023-08-06T06:22:51;93381.63;;;12.04;100.00
39223;BME280;24936;46.328;11.026;2023-08-06T06:25:16;93383.56;;;12.11;100.00
39223;BME280;24936;46.328;11.026;2023-08-06T06:27:42;93377.69;;;12.23;100.00
39223;BME280;24936;46.328;11.026;2023-08-06T06:30:08;93382.38;;;12.36;100.00
39223;BME280;24936;46.328;11.026;2023-08-06T06:32:33;93373.28;;;12.39;100.00
39223;BME280;24936;46.328;11.026;2023-08-06T06:34:59;93381.84;;;12.41;100.00
39223;BME280;24936;46.328;11.026;2023-08-06T06:37:25;93381.84;;;12.41;100.00
39223;BME280;24936;46.328;11.026;2023-08-06T06:39:50;93384.41;;;12.49;100.00
39223;BME280;24936;46.328;11.026;2023-08-06T06:42:15;93384.53;;;12.56;100.00
39223;BME280;24936;46.328;11.026;2023-08-06T06:44:41;93377.66;;;12.70;100.00
39223;BME280;24936;46.328;11.026;2023-08-06T06:47:07;93389.59;;;12.81;100.00
39223;BME280;24936;46.328;11.026;2023-08-06T06:49:32;93390.59;;;12.80;100.00
39223;BME280;24936;46.328;11.026;2023-08-06T06:51:57;93388.38;;;12.68;100.00
39223;BME280;24936;46.328;11.026;2023-08-06T06:54:23;93393.34;;;12.87;100.00
39223;BME280;24936;46.328;11.026;2023-08-06T06:56:48;93386.03;;;12.89;100.00
39223;BME280;24936;46.328;11.026;2023-08-06T06:59:14;93391.06;;;12.98;100.00
39223;BME280;24936;46.328;11.026;2023-08-06T07:01:39;93385.44;;;13.02;100.00
39223;BME280;24936;46.328;11.026;2023-08-06T07:04:04;93382.78;;;13.16;100.00
39223;BME280;24936;46.328;11.026;2023-08-06T07:06:30;93381.88;;;13.24;100.00
39223;BME280;24936;46.328;11.026;2023-08-06T07:08:56;93382.53;;;13.56;100.00
39223;BME280;24936;46.328;11.026;2023-08-06T07:11:21;93378.75;;;13.81;100.00
39223;BME280;24936;46.328;11.026;2023-08-06T07:13:47;93385.06;;;14.01;100.00
39223;BME280;24936;46.328;11.026;2023-08-06T07:16:12;93373.38;;;14.11;100.00
39223;BME280;24936;46.328;11.026;2023-08-06T07:18:38;93367.31;;;14.17;100.00
39223;BME280;24936;46.328;11.026;2023-08-06T07:21:03;93365.69;;;14.16;100.00
39223;BME280;24936;46.328;11.026;2023-08-06T07:23:29;93369.59;;;14.20;100.00
39223;BME280;24936;46.328;11.026;2023-08-06T07:25:54;93361.53;;;14.28;100.00
39223;BME280;24936;46.328;11.026;2023-08-06T07:28:20;93356.50;;;14.33;100.00
39223;BME280;24936;46.328;11.026;2023-08-06T07:30:45;93355.06;;;14.31;100.00
39223;BME280;24936;46.328;11.026;2023-08-06T07:33:11;93360.28;;;14.46;100.00
39223;BME280;24936;46.328;11.026;2023-08-06T07:35:37;93362.41;;;14.57;100.00
39223;BME280;24936;46.328;11.026;2023-08-06T07:38:03;93353.19;;;14.75;98.57
39223;BME280;24936;46.328;11.026;2023-08-06T07:40:28;93351.66;;;14.87;98.87
39223;BME280;24936;46.328;11.026;2023-08-06T07:42:54;93343.59;;;14.95;99.32
39223;BME280;24936;46.328;11.026;2023-08-06T07:45:19;93352.38;;;15.03;100.00
39223;BME280;24936;46.328;11.026;2023-08-06T07:47:45;93353.00;;;15.05;97.20
39223;BME280;24936;46.328;11.026;2023-08-06T07:50:10;93354.22;;;15.02;100.00
39223;BME280;24936;46.328;11.026;2023-08-06T07:52:36;93337.34;;;15.10;100.00
39223;BME280;24936;46.328;11.026;2023-08-06T07:55:01;93344.41;;;15.31;95.58
39223;BME280;24936;46.328;11.026;2023-08-06T07:57:30;93344.63;;;15.36;94.40
39223;BME280;24936;46.328;11.026;2023-08-06T07:59:56;93348.34;;;15.49;95.84
39223;BME280;24936;46.328;11.026;2023-08-06T08:02:21;93348.31;;;15.42;91.36
39223;BME280;24936;46.328;11.026;2023-08-06T08:04:46;93352.00;;;15.48;92.49
39223;BME280;24936;46.328;11.026;2023-08-06T08:07:15;93349.81;;;15.51;92.11
39223;BME280;24936;46.328;11.026;2023-08-06T08:09:40;93347.84;;;15.67;93.74
39223;BME280;24936;46.328;11.026;2023-08-06T08:12:06;93346.09;;;15.87;91.96
39223;BME280;24936;46.328;11.026;2023-08-06T08:14:31;93349.41;;;16.10;90.09
39223;BME280;24936;46.328;11.026;2023-08-06T08:17:02;93350.66;;;16.20;89.09
39223;BME280;24936;46.328;11.026;2023-08-06T08:19:28;93342.91;;;16.32;86.25
39223;BME280;24936;46.328;11.026;2023-08-06T08:21:53;93342.13;;;16.45;87.56
39223;BME280;24936;46.328;11.026;2023-08-06T08:24:19;93341.72;;;16.48;86.28
39223;BME280;24936;46.328;11.026;2023-08-06T08:26:45;93345.56;;;16.66;86.84
39223;BME280;24936;46.328;11.026;2023-08-06T08:29:10;93348.22;;;16.73;86.41
39223;BME280;24936;46.328;11.026;2023-08-06T08:31:35;93344.16;;;16.84;86.36
39223;BME280;24936;46.328;11.026;2023-08-06T08:34:04;93351.50;;;17.08;85.32
39223;BME280;24936;46.328;11.026;2023-08-06T08:36:30;93344.16;;;17.10;84.47
39223;BME280;24936;46.328;11.026;2023-08-06T08:38:55;93333.03;;;17.40;88.13
39223;BME280;24936;46.328;11.026;2023-08-06T08:41:21;93321.13;;;17.50;84.57
39223;BME280;24936;46.328;11.026;2023-08-06T08:43:49;93321.53;;;17.60;84.69
39223;BME280;24936;46.328;11.026;2023-08-06T08:46:18;93326.00;;;17.66;86.21
39223;BME280;24936;46.328;11.026;2023-08-06T08:48:43;93321.16;;;17.95;82.23
39223;BME280;24936;46.328;11.026;2023-08-06T08:51:09;93322.25;;;18.26;82.31
39223;BME280;24936;46.328;11.026;2023-08-06T08:53:37;93321.97;;;18.34;80.26
39223;BME280;24936;46.328;11.026;2023-08-06T08:56:04;93322.38;;;18.63;78.42
39223;BME280;24936;46.328;11.026;2023-08-06T08:58:30;93319.50;;;19.34;77.19
39223;BME280;24936;46.328;11.026;2023-08-06T09:00:56;93317.47;;;20.04;74.90
39223;BME280;24936;46.328;11.026;2023-08-06T09:03:22;93311.78;;;20.85;71.78
39223;BME280;24936;46.328;11.026;2023-08-06T09:05:50;93298.06;;;21.05;70.53
39223;BME280;24936;46.328;11.026;2023-08-06T09:08:18;93296.50;;;21.69;65.49
39223;BME280;24936;46.328;11.026;2023-08-06T09:10:48;93301.88;;;22.73;62.86
39223;BME280;24936;46.328;11.026;2023-08-06T09:13:14;93302.72;;;23.47;54.88
39223;BME280;24936;46.328;11.026;2023-08-06T09:15:39;93294.72;;;24.19;51.78
39223;BME280;24936;46.328;11.026;2023-08-06T09:18:11;93289.13;;;24.75;51.36
39223;BME280;24936;46.328;11.026;2023-08-06T09:20:40;93285.78;;;25.38;44.48
39223;BME280;24936;46.328;11.026;2023-08-06T09:23:10;93283.13;;;26.02;45.23
39223;BME280;24936;46.328;11.026;2023-08-06T09:25:38;93287.09;;;26.83;42.16
39223;BME280;24936;46.328;11.026;2023-08-06T09:28:05;93290.53;;;26.32;40.68
39223;BME280;24936;46.328;11.026;2023-08-06T09:30:32;93284.41;;;26.83;40.08
39223;BME280;24936;46.328;11.026;2023-08-06T09:32:58;93272.47;;;27.26;43.16
39223;BME280;24936;46.328;11.026;2023-08-06T09:35:24;93283.00;;;27.43;43.56
39223;BME280;24936;46.328;11.026;2023-08-06T09:37:49;93278.97;;;27.25;45.65
39223;BME280;24936;46.328;11.026;2023-08-06T09:42:50;93283.78;;;27.54;41.70
39223;BME280;24936;46.328;11.026;2023-08-06T09:45:16;93288.44;;;27.22;39.48
39223;BME280;24936;46.328;11.026;2023-08-06T09:47:42;93282.38;;;28.37;37.17
39223;BME280;24936;46.328;11.026;2023-08-06T09:50:17;93289.00;;;28.61;32.72
39223;BME280;24936;46.328;11.026;2023-08-06T09:52:47;93276.31;;;28.61;34.09
39223;BME280;24936;46.328;11.026;2023-08-06T09:55:16;93278.28;;;28.90;36.62
39223;BME280;24936;46.328;11.026;2023-08-06T09:57:42;93273.81;;;29.88;36.46
39223;BME280;24936;46.328;11.026;2023-08-06T10:00:09;93277.63;;;29.63;37.35
39223;BME280;24936;46.328;11.026;2023-08-06T10:02:37;93278.94;;;29.41;36.39
39223;BME280;24936;46.328;11.026;2023-08-06T10:05:03;93275.25;;;29.56;35.86
39223;BME280;24936;46.328;11.026;2023-08-06T10:07:30;93274.53;;;29.15;33.06
39223;BME280;24936;46.328;11.026;2023-08-06T10:09:55;93268.22;;;26.83;40.21
39223;BME280;24936;46.328;11.026;2023-08-06T10:12:24;93272.00;;;28.55;33.24
39223;BME280;24936;46.328;11.026;2023-08-06T10:14:57;93271.38;;;29.38;33.26
39223;BME280;24936;46.328;11.026;2023-08-06T10:17:24;93268.34;;;28.80;34.27
39223;BME280;24936;46.328;11.026;2023-08-06T10:19:50;93271.06;;;29.93;31.37
39223;BME280;24936;46.328;11.026;2023-08-06T10:22:25;93270.00;;;29.65;31.45
39223;BME280;24936;46.328;11.026;2023-08-06T10:24:58;93263.34;;;30.05;31.28
39223;BME280;24936;46.328;11.026;2023-08-06T10:27:32;93263.56;;;30.47;35.09
39223;BME280;24936;46.328;11.026;2023-08-06T10:30:24;93264.28;;;27.77;37.90
39223;BME280;24936;46.328;11.026;2023-08-06T10:32:51;93268.69;;;29.33;30.94
39223;BME280;24936;46.328;11.026;2023-08-06T10:40:31;93272.16;;;28.34;29.07
39223;BME280;24936;46.328;11.026;2023-08-06T10:43:02;93267.16;;;29.21;29.86
39223;BME280;24936;46.328;11.026;2023-08-06T10:45:28;93275.28;;;28.92;33.64
39223;BME280;24936;46.328;11.026;2023-08-06T10:47:54;93267.69;;;30.26;29.75
39223;BME280;24936;46.328;11.026;2023-08-06T10:50:21;93266.56;;;28.60;33.88
39223;BME280;24936;46.328;11.026;2023-08-06T10:52:47;93264.41;;;27.15;32.63
39223;BME280;24936;46.328;11.026;2023-08-06T10:55:23;93261.66;;;26.17;31.64
39223;BME280;24936;46.328;11.026;2023-08-06T10:57:49;93257.28;;;27.66;32.92
39223;BME280;24936;46.328;11.026;2023-08-06T11:00:15;93245.84;;;28.45;29.36
39223;BME280;24936;46.328;11.026;2023-08-06T11:02:41;93246.25;;;29.03;28.67
39223;BME280;24936;46.328;11.026;2023-08-06T11:05:10;93257.50;;;29.93;25.98
39223;BME280;24936;46.328;11.026;2023-08-06T11:07:37;93257.72;;;30.40;29.15
39223;BME280;24936;46.328;11.026;2023-08-06T11:10:10;93247.13;;;30.19;23.91
39223;BME280;24936;46.328;11.026;2023-08-06T11:12:36;93254.03;;;27.69;32.69
39223;BME280;24936;46.328;11.026;2023-08-06T11:15:02;93263.47;;;25.43;39.00
39223;BME280;24936;46.328;11.026;2023-08-06T11:17:30;93262.63;;;25.37;46.21
39223;BME280;24936;46.328;11.026;2023-08-06T11:19:59;93263.34;;;24.84;35.37
39223;BME280;24936;46.328;11.026;2023-08-06T11:22:26;93263.09;;;24.26;37.77
39223;BME280;24936;46.328;11.026;2023-08-06T11:24:53;93271.00;;;23.66;37.85
39223;BME280;24936;46.328;11.026;2023-08-06T11:27:18;93277.47;;;23.26;41.99
39223;BME280;24936;46.328;11.026;2023-08-06T11:29:44;93277.00;;;23.29;43.08
39223;BME280;24936;46.328;11.026;2023-08-06T11:32:10;93277.66;;;23.02;45.51
39223;BME280;24936;46.328;11.026;2023-08-06T11:34:36;93284.56;;;22.18;48.86
39223;BME280;24936;46.328;11.026;2023-08-06T11:37:03;93287.97;;;22.30;58.57
39223;BME280;24936;46.328;11.026;2023-08-06T11:39:34;93282.13;;;22.79;56.46
39223;BME280;24936;46.328;11.026;2023-08-06T11:42:00;93281.13;;;26.76;40.32
39223;BME280;24936;46.328;11.026;2023-08-06T11:44:30;93277.03;;;29.41;32.85
39223;BME280;24936;46.328;11.026;2023-08-06T11:46:57;93286.03;;;28.62;28.69
39223;BME280;24936;46.328;11.026;2023-08-06T11:49:47;93272.63;;;29.51;33.17
39223;BME280;24936;46.328;11.026;2023-08-06T11:54:38;93266.84;;;28.14;29.14
39223;BME280;24936;46.328;11.026;2023-08-06T11:57:07;93272.41;;;28.78;26.88
39223;BME280;24936;46.328;11.026;2023-08-06T11:59:32;93271.63;;;28.32;31.88
39223;BME280;24936;46.328;11.026;2023-08-06T12:02:01;93266.97;;;28.83;31.44
39223;BME280;24936;46.328;11.026;2023-08-06T12:04:26;93258.25;;;29.50;33.88
39223;BME280;24936;46.328;11.026;2023-08-06T12:06:52;93258.00;;;30.19;27.64
39223;BME280;24936;46.328;11.026;2023-08-06T12:09:18;93265.34;;;30.76;28.62
39223;BME280;24936;46.328;11.026;2023-08-06T12:11:43;93260.97;;;31.75;29.56
39223;BME280;24936;46.328;11.026;2023-08-06T12:14:09;93269.03;;;31.19;27.96
39223;BME280;24936;46.328;11.026;2023-08-06T12:16:34;93267.41;;;30.85;30.05
39223;BME280;24936;46.328;11.026;2023-08-06T12:19:01;93259.13;;;30.76;30.11
39223;BME280;24936;46.328;11.026;2023-08-06T12:21:26;93254.16;;;30.97;27.53
39223;BME280;24936;46.328;11.026;2023-08-06T12:23:52;93267.72;;;31.91;28.88
39223;BME280;24936;46.328;11.026;2023-08-06T12:26:17;93261.81;;;29.16;32.60
39223;BME280;24936;46.328;11.026;2023-08-06T12:28:42;93269.91;;;29.99;29.05
39223;BME280;24936;46.328;11.026;2023-08-06T12:31:08;93258.22;;;30.80;28.80
39223;BME280;24936;46.328;11.026;2023-08-06T12:33:33;93267.13;;;27.00;28.77
39223;BME280;24936;46.328;11.026;2023-08-06T12:35:59;93266.91;;;25.81;32.94
39223;BME280;24936;46.328;11.026;2023-08-06T12:38:24;93267.16;;;24.88;35.33
39223;BME280;24936;46.328;11.026;2023-08-06T12:40:50;93280.03;;;24.54;38.11
39223;BME280;24936;46.328;11.026;2023-08-06T12:43:15;93286.47;;;23.98;42.02
39223;BME280;24936;46.328;11.026;2023-08-06T12:45:41;93283.19;;;22.95;38.03
39223;BME280;24936;46.328;11.026;2023-08-06T12:48:06;93305.19;;;22.46;52.66
39223;BME280;24936;46.328;11.026;2023-08-06T12:50:32;93316.84;;;20.21;59.57
39223;BME280;24936;46.328;11.026;2023-08-06T12:53:00;93330.44;;;18.82;72.73